Time;durP1;ratioP1;P1;durP2;ratioP2;P2;SDS_P1;SDS_P2;PMS_P1;PMS_P2;Temp;Humidity;BMP_temperature;BMP_pressure;BME280_temperature;BME280_humidity;BME280_pressure;Samples;Min_cycle;Max_cycle;Signal;HPM_P1;HPM_P2
2023/11/24 00:01:06;;;;;;;5.30;4.30;;;;;;;5.10;86.92;97124.39;226332;1262;22573;-77
2023/11/24 00:06:12;;;;;;;6.80;4.60;;;;;;;5.08;86.97;97125.63;226424;1275;22568;-77
2023/11/24 00:11:15;;;;;;;4.70;3.20;;;;;;;5.08;86.80;97119.19;226476;1272;22549;-77
2023/11/24 00:16:18;;;;;;;2.90;2.20;;;;;;;5.09;87.80;97103.44;226448;1272;22582;-77
2023/11/24 00:21:21;;;;;;;5.20;4.30;;;;;;;5.08;88.37;97100.33;226459;1269;25497;-77
2023/11/24 00:26:26;;;;;;;3.90;2.70;;;;;;;5.10;88.86;97114.13;226314;1274;25419;-78
2023/11/24 00:31:34;;;;;;;4.70;4.00;;;;;;;5.10;89.08;97086.66;226436;1270;25399;-77
2023/11/24 00:36:36;;;;;;;4.20;3.50;;;;;;;5.10;88.61;97085.48;226561;1272;22960;-77
2023/11/24 00:41:39;;;;;;;4.90;3.60;;;;;;;5.12;89.03;97086.83;226447;1272;22562;-76
2023/11/24 00:46:41;;;;;;;5.00;3.90;;;;;;;5.11;89.43;97079.58;226315;1275;22552;-76
2023/11/24 00:51:44;;;;;;;4.10;3.40;;;;;;;5.10;89.79;97072.36;226448;1275;22540;-76
2023/11/24 00:56:46;;;;;;;3.90;3.50;;;;;;;5.10;90.54;97072.41;226283;1273;24925;-76
2023/11/24 01:01:48;;;;;;;4.80;4.30;;;;;;;5.09;90.74;97060.44;226350;1255;22584;-77
2023/11/24 01:06:51;;;;;;;4.50;4.10;;;;;;;5.05;90.88;97091.02;226369;1273;24315;-77
2023/11/24 01:11:53;;;;;;;6.80;5.10;;;;;;;5.03;91.19;97129.64;226327;1275;22551;-77
2023/11/24 01:16:55;;;;;;;0.90;0.70;;;;;;;4.98;90.82;97258.81;226527;1273;23078;-75
2023/11/24 01:21:57;;;;;;;0.60;0.30;;;;;;;4.28;88.12;97270.77;226467;1272;25348;-75
2023/11/24 01:27:03;;;;;;;1.90;0.50;;;;;;;3.57;88.81;97254.23;226329;1270;22536;-74
2023/11/24 01:32:05;;;;;;;1.50;0.40;;;;;;;3.28;89.79;97259.48;226517;1269;22554;-74
2023/11/24 01:37:08;;;;;;;1.60;0.30;;;;;;;3.26;91.13;97260.95;226526;1269;22560;-75
2023/11/24 01:42:10;;;;;;;1.80;0.30;;;;;;;3.37;91.94;97252.84;226465;1269;22547;-75
2023/11/24 01:47:12;;;;;;;0.60;0.30;;;;;;;3.47;92.61;97239.80;226377;1275;24242;-76
2023/11/24 01:52:15;;;;;;;1.30;0.30;;;;;;;3.54;92.65;97231.30;226319;1273;22561;-76
2023/11/24 01:57:17;;;;;;;0.60;0.30;;;;;;;3.60;92.65;97222.08;226546;1272;22547;-76
2023/11/24 02:02:20;;;;;;;1.60;0.30;;;;;;;3.67;93.32;97228.56;226366;1275;22572;-76
2023/11/24 02:07:23;;;;;;;2.30;0.40;;;;;;;3.75;93.39;97222.90;226520;1273;22556;-76
2023/11/24 02:12:27;;;;;;;1.00;0.20;;;;;;;3.80;93.33;97197.77;226332;1273;24280;-76
2023/11/24 02:17:29;;;;;;;1.10;0.30;;;;;;;3.82;93.30;97162.64;226536;1253;22563;-75
2023/11/24 02:22:38;;;;;;;0.30;0.20;;;;;;;3.82;93.26;97126.56;226467;1272;22544;-75
2023/11/24 02:27:40;;;;;;;1.40;0.30;;;;;;;3.83;93.23;97136.02;226491;1272;22615;-75
2023/11/24 02:32:42;;;;;;;1.60;0.40;;;;;;;3.85;93.36;97136.83;226294;1275;22882;-75
2023/11/24 02:37:44;;;;;;;1.70;0.60;;;;;;;3.88;93.44;97152.13;226517;1272;22554;-75
2023/11/24 02:42:47;;;;;;;0.60;0.50;;;;;;;3.92;93.65;97153.33;226507;1272;22551;-75
2023/11/24 02:47:50;;;;;;;1.80;0.50;;;;;;;3.96;93.71;97140.27;226461;1269;22539;-75
2023/11/24 02:52:52;;;;;;;2.20;0.50;;;;;;;4.00;93.91;97142.33;226456;1274;22536;-75
2023/11/24 02:57:54;;;;;;;1.00;0.40;;;;;;;4.04;93.73;97130.33;226489;1273;22568;-75
2023/11/24 03:02:56;;;;;;;2.80;0.30;;;;;;;4.07;93.94;97126.30;226493;1272;22523;-75
2023/11/24 03:07:58;;;;;;;1.90;0.30;;;;;;;4.09;93.76;97138.23;226469;1272;26075;-75
2023/11/24 03:13:01;;;;;;;1.40;0.30;;;;;;;4.10;93.98;97131.52;226513;1275;22544;-75
2023/11/24 03:18:04;;;;;;;1.10;0.40;;;;;;;4.10;93.66;97123.84;226534;1273;22543;-76
2023/11/24 03:23:06;;;;;;;0.40;0.30;;;;;;;4.12;93.77;97102.52;226481;1273;22537;-76
2023/11/24 03:28:08;;;;;;;1.30;0.30;;;;;;;4.14;94.17;97095.86;226548;1273;22629;-76
2023/11/24 03:33:10;;;;;;;0.90;0.30;;;;;;;4.17;94.03;97091.64;226469;1272;24655;-76
2023/11/24 03:38:13;;;;;;;2.10;0.40;;;;;;;4.20;94.00;97094.75;226440;1272;23320;-77
2023/11/24 03:43:15;;;;;;;1.30;0.20;;;;;;;4.23;94.15;97093.18;226469;1269;22576;-76
2023/11/24 03:48:30;;;;;;;2.20;0.30;;;;;;;4.25;93.67;97081.87;226469;1272;22580;-74
2023/11/24 03:53:32;;;;;;;1.80;0.70;;;;;;;4.27;93.66;97075.25;226465;1269;23227;-76
2023/11/24 03:58:34;;;;;;;1.60;0.30;;;;;;;4.27;93.99;97069.69;226433;1272;22540;-77
2023/11/24 04:03:36;;;;;;;1.40;0.60;;;;;;;4.27;93.73;97072.63;226421;1273;22547;-76
2023/11/24 04:08:39;;;;;;;1.80;0.40;;;;;;;4.25;93.69;97069.39;226520;1272;23016;-76
2023/11/24 04:13:41;;;;;;;1.20;0.40;;;;;;;4.24;93.66;97058.52;226526;1266;24307;-76
2023/11/24 04:18:44;;;;;;;2.70;0.70;;;;;;;4.22;93.49;97055.50;226548;1270;24237;-76
2023/11/24 04:23:46;;;;;;;4.10;1.40;;;;;;;4.21;93.54;97066.02;226595;1271;22560;-76
2023/11/24 04:28:49;;;;;;;2.10;0.40;;;;;;;4.22;93.59;97061.24;226581;1272;23323;-76
2023/11/24 04:33:51;;;;;;;1.50;0.50;;;;;;;4.23;93.90;97045.05;226548;1253;22569;-76
2023/11/24 04:38:53;;;;;;;4.90;0.70;;;;;;;4.24;93.68;97045.54;226643;1272;22553;-76
2023/11/24 04:43:55;;;;;;;4.80;1.00;;;;;;;4.27;94.02;97053.45;226618;1272;22559;-75
2023/11/24 04:49:02;;;;;;;2.20;0.40;;;;;;;4.27;93.67;97064.23;226557;1272;22604;-75
2023/11/24 04:54:05;;;;;;;0.70;0.20;;;;;;;4.08;92.44;97107.16;226458;1270;24420;-75
2023/11/24 04:59:07;;;;;;;2.10;0.40;;;;;;;3.61;91.62;97102.31;226550;1272;22566;-75
2023/11/24 05:04:10;;;;;;;2.10;0.30;;;;;;;3.19;91.54;97100.44;226474;1272;22670;-75
2023/11/24 05:09:12;;;;;;;4.30;1.10;;;;;;;2.92;91.91;97082.37;226418;1272;25844;-75
2023/11/24 05:14:15;;;;;;;2.50;0.70;;;;;;;2.73;92.33;97089.95;226574;1272;25189;-75
2023/11/24 05:19:17;;;;;;;2.40;0.60;;;;;;;2.59;92.59;97083.59;226540;1274;22612;-75
2023/11/24 05:24:20;;;;;;;2.20;0.60;;;;;;;2.47;92.65;97091.99;226560;1272;22544;-74
2023/11/24 05:29:21;;;;;;;1.30;0.40;;;;;;;2.37;92.96;97094.21;226604;1272;22569;-74
2023/11/24 05:34:27;;;;;;;2.10;0.50;;;;;;;2.28;93.14;97072.02;226543;1270;22591;-75
2023/11/24 05:39:29;;;;;;;2.40;0.60;;;;;;;2.18;93.24;97093.64;226549;1275;22583;-74
2023/11/24 05:44:32;;;;;;;2.50;1.00;;;;;;;2.15;93.62;97081.88;226552;1275;22640;-75
2023/11/24 05:49:34;;;;;;;2.00;0.60;;;;;;;2.08;93.78;97086.98;226536;1274;22596;-75
2023/11/24 05:54:36;;;;;;;1.20;0.40;;;;;;;1.99;93.78;97096.31;226479;1275;22881;-74
2023/11/24 05:59:39;;;;;;;2.80;1.00;;;;;;;1.94;94.04;97099.34;226534;1274;22561;-75
2023/11/24 06:04:41;;;;;;;2.70;0.90;;;;;;;1.89;94.19;97096.17;226512;1275;24427;-75
2023/11/24 06:09:44;;;;;;;1.00;0.90;;;;;;;1.83;94.19;97112.80;226539;1272;22549;-75
2023/11/24 06:14:47;;;;;;;4.00;1.00;;;;;;;1.77;94.37;97109.24;226569;1269;22553;-76
2023/11/24 06:19:49;;;;;;;3.90;1.70;;;;;;;1.74;94.50;97116.40;226504;1272;22548;-76
2023/11/24 06:24:53;;;;;;;3.90;2.50;;;;;;;1.71;94.51;97119.53;226501;1272;24397;-76
2023/11/24 06:29:55;;;;;;;4.70;2.60;;;;;;;1.72;94.60;97136.58;226623;1272;24244;-75
2023/11/24 06:34:58;;;;;;;5.20;2.90;;;;;;;1.76;94.79;97144.43;226544;1271;23289;-75
2023/11/24 06:40:02;;;;;;;6.40;4.00;;;;;;;1.80;94.94;97145.17;226538;1270;25304;-76
2023/11/24 06:45:08;;;;;;;6.70;4.00;;;;;;;1.87;95.14;97162.29;226399;1269;22645;-75
2023/11/24 06:50:13;;;;;;;5.00;2.80;;;;;;;1.92;94.90;97165.78;226302;1256;22554;-75
2023/11/24 06:55:15;;;;;;;5.60;3.50;;;;;;;1.94;95.11;97171.92;226324;1269;22891;-76
2023/11/24 07:00:18;;;;;;;13.50;7.40;;;;;;;1.98;95.31;97169.56;225907;1262;22545;-76
2023/11/24 07:05:20;;;;;;;6.70;3.20;;;;;;;2.05;95.20;97171.73;226143;1253;24231;-75
2023/11/24 07:10:22;;;;;;;8.40;3.70;;;;;;;2.19;95.48;97168.52;225909;1257;22628;-75
2023/11/24 07:15:25;;;;;;;7.60;4.30;;;;;;;2.37;95.52;97170.48;226140;1256;23083;-75
2023/11/24 07:20:27;;;;;;;7.20;3.50;;;;;;;2.51;95.72;97164.48;226050;1261;25307;-76
2023/11/24 07:25:29;;;;;;;5.50;2.60;;;;;;;2.68;95.78;97154.05;225882;1262;22560;-75
2023/11/24 07:30:31;;;;;;;8.50;2.50;;;;;;;2.85;95.71;97146.56;225939;1253;23479;-75
2023/11/24 07:35:33;;;;;;;5.20;2.60;;;;;;;3.02;95.56;97144.75;225970;1256;22595;-76
2023/11/24 07:40:35;;;;;;;5.60;2.90;;;;;;;3.14;95.42;97148.91;225738;1264;22544;-74
2023/11/24 07:45:38;;;;;;;7.30;3.10;;;;;;;3.22;95.40;97153.72;225974;1253;22608;-77
2023/11/24 07:50:41;;;;;;;7.60;2.90;;;;;;;3.27;95.06;97168.55;225882;1263;23064;-74
2023/11/24 07:55:43;;;;;;;8.30;1.90;;;;;;;3.30;94.61;97173.50;226382;1264;22610;-73
2023/11/24 08:00:45;;;;;;;4.80;1.50;;;;;;;3.28;94.21;97174.37;226017;1253;22541;-74
2023/11/24 08:05:50;;;;;;;7.30;2.00;;;;;;;3.23;94.00;97168.70;225910;1256;22550;-73
2023/11/24 08:10:53;;;;;;;6.60;2.10;;;;;;;3.14;94.04;97164.20;225921;1272;22920;-74
2023/11/24 08:15:55;;;;;;;6.40;1.60;;;;;;;3.25;94.74;97169.64;225902;1269;22606;-74
2023/11/24 08:21:01;;;;;;;5.00;1.60;;;;;;;3.56;94.73;97166.05;225961;1269;22541;-74
2023/11/24 08:26:04;;;;;;;6.50;1.80;;;;;;;3.56;93.91;97164.29;226130;1252;22540;-75
2023/11/24 08:31:06;;;;;;;4.70;2.00;;;;;;;3.57;94.04;97159.10;226058;1253;22554;-76
2023/11/24 08:36:09;;;;;;;6.40;1.60;;;;;;;3.66;94.13;97150.45;226133;1256;22609;-74
2023/11/24 08:41:13;;;;;;;5.60;2.00;;;;;;;3.79;93.91;97140.02;226046;1266;22544;-73
2023/11/24 08:46:32;;;;;;;6.80;2.00;;;;;;;3.86;93.83;97135.02;226026;1266;22544;-74
2023/11/24 08:51:35;;;;;;;5.70;1.80;;;;;;;3.95;93.80;97136.92;226014;1256;22505;-74
2023/11/24 08:56:38;;;;;;;5.60;2.30;;;;;;;3.94;93.23;97132.26;226078;1269;22560;-75
2023/11/24 09:01:40;;;;;;;7.50;2.10;;;;;;;3.95;93.13;97107.10;226178;1265;22549;-75
2023/11/24 09:06:42;;;;;;;7.70;2.20;;;;;;;4.01;92.88;97102.73;226168;1272;25966;-74
2023/11/24 09:11:45;;;;;;;5.60;1.90;;;;;;;4.03;92.34;97092.29;225963;1272;22562;-75
2023/11/24 09:16:47;;;;;;;5.50;1.90;;;;;;;4.01;92.09;97104.16;225988;1265;25250;-75
2023/11/24 09:21:49;;;;;;;5.80;2.10;;;;;;;4.02;92.18;97108.11;225962;1269;24233;-74
2023/11/24 09:26:53;;;;;;;4.70;2.10;;;;;;;4.06;92.73;97091.23;225904;1269;22585;-74
2023/11/24 09:31:57;;;;;;;9.10;2.60;;;;;;;4.12;91.83;97072.80;225968;1272;22653;-75
2023/11/24 09:37:01;;;;;;;6.90;1.90;;;;;;;4.19;92.12;97049.52;226030;1259;22533;-76
2023/11/24 09:42:03;;;;;;;5.40;1.90;;;;;;;4.28;91.60;97045.80;226323;1269;22531;-74
2023/11/24 09:47:07;;;;;;;5.20;1.80;;;;;;;4.39;91.63;97038.32;225934;1269;22539;-75
2023/11/24 09:52:10;;;;;;;3.10;1.50;;;;;;;4.51;91.18;97013.12;225926;1272;25236;-74
2023/11/24 09:57:12;;;;;;;7.20;2.30;;;;;;;4.59;90.12;97009.44;225812;1266;25288;-74
2023/11/24 10:02:18;;;;;;;7.10;2.10;;;;;;;4.71;90.00;97006.88;225808;1269;25361;-73
2023/11/24 10:07:22;;;;;;;5.00;1.80;;;;;;;4.82;89.12;96995.08;228622;1272;22329;-74
2023/11/24 10:12:25;;;;;;;5.20;1.90;;;;;;;4.88;88.78;96989.36;226945;1275;22578;-73
2023/11/24 10:17:32;;;;;;;6.20;1.60;;;;;;;4.90;88.00;96989.38;225872;1267;22543;-73
2023/11/24 10:22:35;;;;;;;5.40;1.40;;;;;;;4.88;87.55;96975.63;225860;1268;24239;-73
2023/11/24 10:27:41;;;;;;;5.50;2.10;;;;;;;4.83;87.02;96957.38;225721;1259;22546;-74
2023/11/24 10:32:47;;;;;;;6.70;2.50;;;;;;;4.87;87.11;96950.47;225743;1266;22565;-74
2023/11/24 10:37:49;;;;;;;5.10;2.10;;;;;;;4.91;86.65;96932.71;225974;1263;22558;-74
2023/11/24 10:42:53;;;;;;;5.30;2.20;;;;;;;4.92;86.31;96916.13;226030;1272;24908;-74
2023/11/24 10:48:14;;;;;;;6.20;1.50;;;;;;;5.03;86.17;96921.14;226191;1269;22609;-73
2023/11/24 10:53:17;;;;;;;;;;;;;;;5.35;85.87;96917.64;225942;1256;22514;-74
2023/11/24 10:58:21;;;;;;;5.40;1.40;;;;;;;5.52;85.06;96916.39;226040;1272;24305;-74
2023/11/24 11:03:25;;;;;;;3.20;1.00;;;;;;;5.60;84.54;96911.00;225836;1276;22671;-74
2023/11/24 11:09:09;;;;;;;2.60;0.90;;;;;;;5.70;84.39;96916.47;225965;1276;22937;-74
2023/11/24 11:14:19;;;;;;;2.60;0.80;;;;;;;5.76;83.60;96912.67;225931;1276;22540;-75
2023/11/24 11:19:31;;;;;;;3.20;0.80;;;;;;;5.74;82.50;96919.81;225894;1272;22557;-75
2023/11/24 11:24:34;;;;;;;2.10;0.50;;;;;;;5.68;81.70;96907.88;225779;1272;171345;-75
2023/11/24 11:29:36;;;;;;;2.40;0.90;;;;;;;5.58;81.25;96896.52;225881;1263;22898;-75
2023/11/24 11:34:38;;;;;;;2.90;0.90;;;;;;;5.51;80.96;96880.08;225904;1269;22847;-75
2023/11/24 11:39:59;;;;;;;1.60;0.80;;;;;;;5.47;80.90;96871.04;225872;1266;22546;-73
2023/11/24 11:45:11;;;;;;;2.00;0.70;;;;;;;5.43;80.12;96872.08;225870;1275;26427;-75
2023/11/24 11:50:20;;;;;;;4.40;0.80;;;;;;;5.35;79.01;96873.45;225849;1265;22590;-75
2023/11/24 11:55:25;;;;;;;1.60;0.80;;;;;;;5.28;79.16;96878.73;225991;1273;22554;-75
2023/11/24 12:00:29;;;;;;;2.80;0.80;;;;;;;5.17;79.27;96871.20;225825;1275;22614;-75
2023/11/24 12:05:32;;;;;;;3.80;1.30;;;;;;;5.08;79.12;96869.85;225849;1275;22674;-76
2023/11/24 12:10:37;;;;;;;3.70;1.00;;;;;;;5.06;79.53;96875.04;225882;1272;22665;-76
2023/11/24 12:15:39;;;;;;;2.20;0.80;;;;;;;5.06;79.61;96874.67;225992;1270;22539;-76
2023/11/24 12:20:44;;;;;;;1.40;0.90;;;;;;;5.11;79.38;96871.98;225808;1266;22541;-76
2023/11/24 12:25:46;;;;;;;2.80;0.80;;;;;;;5.13;78.40;96861.73;226006;1269;24225;-77
2023/11/24 12:30:48;;;;;;;3.70;1.30;;;;;;;5.19;78.98;96847.48;226098;1256;22535;-75
2023/11/24 12:35:59;;;;;;;2.90;1.30;;;;;;;5.29;78.69;96838.45;225950;1256;22531;-75
2023/11/24 12:41:01;;;;;;;;;;;;;;;5.34;78.44;96829.50;225979;1254;22528;-76
2023/11/24 12:46:03;;;;;;;4.50;1.20;;;;;;;5.28;77.85;96832.98;225874;1269;22634;-75
2023/11/24 12:51:05;;;;;;;2.30;1.20;;;;;;;5.27;77.57;96834.34;225962;1269;22552;-74
2023/11/24 12:56:07;;;;;;;3.60;1.60;;;;;;;5.27;77.76;96827.86;225718;1256;25303;-74
2023/11/24 13:01:10;;;;;;;2.40;1.00;;;;;;;5.30;77.53;96826.45;225758;1260;22545;-74
2023/11/24 13:06:12;;;;;;;2.40;1.20;;;;;;;5.35;77.73;96820.23;225981;1269;24390;-77
2023/11/24 13:11:14;;;;;;;3.70;1.30;;;;;;;5.30;77.26;96827.21;225773;1270;22684;-74
2023/11/24 13:16:16;;;;;;;5.90;1.50;;;;;;;5.17;76.65;96821.58;225737;1266;22550;-74
2023/11/24 13:21:19;;;;;;;4.30;1.90;;;;;;;5.07;77.17;96822.74;225621;1272;22568;-73
2023/11/24 13:26:21;;;;;;;3.80;1.60;;;;;;;4.91;76.91;96816.50;225786;1272;22477;-74
2023/11/24 13:31:23;;;;;;;3.80;1.40;;;;;;;4.73;77.10;96818.58;225895;1273;22567;-75
2023/11/24 13:36:25;;;;;;;2.70;1.50;;;;;;;4.55;76.73;96826.42;225946;1270;22656;-75
2023/11/24 13:41:27;;;;;;;5.60;2.30;;;;;;;4.47;76.96;96808.30;225762;1275;22666;-73
2023/11/24 13:46:29;;;;;;;5.20;1.60;;;;;;;4.44;77.55;96809.68;225965;1257;22641;-74
2023/11/24 13:51:32;;;;;;;2.50;1.20;;;;;;;4.47;77.55;96802.63;226002;1257;22550;-74
2023/11/24 13:56:34;;;;;;;2.90;1.00;;;;;;;4.53;77.65;96807.45;226026;1266;22553;-75
2023/11/24 14:01:36;;;;;;;3.90;1.00;;;;;;;4.53;77.70;96801.53;225993;1273;22968;-75
2023/11/24 14:06:39;;;;;;;2.20;1.20;;;;;;;4.47;77.26;96804.36;225926;1268;22536;-74
2023/11/24 14:11:41;;;;;;;3.80;1.50;;;;;;;4.43;76.95;96806.27;225757;1263;22564;-77
2023/11/24 14:16:44;;;;;;;6.00;1.20;;;;;;;4.40;77.27;96803.64;225612;1253;22625;-75
2023/11/24 14:21:49;;;;;;;4.30;1.30;;;;;;;4.36;77.28;96817.21;225961;1257;22540;-75
2023/11/24 14:26:51;;;;;;;3.50;1.70;;;;;;;4.30;77.03;96813.25;226043;1273;22600;-76
2023/11/24 14:31:53;;;;;;;3.60;1.60;;;;;;;4.22;76.97;96820.35;226025;1256;22546;-78
2023/11/24 14:36:57;;;;;;;4.00;1.30;;;;;;;4.16;77.27;96817.84;226102;1254;22583;-74
2023/11/24 14:41:59;;;;;;;3.50;1.40;;;;;;;4.10;77.25;96814.69;226030;1272;24350;-77
2023/11/24 14:47:02;;;;;;;4.40;2.00;;;;;;;4.00;77.04;96806.69;226280;1258;22614;-76
2023/11/24 14:52:07;;;;;;;7.30;2.60;;;;;;;3.90;77.05;96813.15;225904;1261;22540;-78
2023/11/24 14:57:12;;;;;;;8.70;1.80;;;;;;;3.83;77.11;96823.46;225965;1270;22605;-75
2023/11/24 15:02:16;;;;;;;4.80;1.50;;;;;;;3.80;77.05;96822.98;225728;1270;24231;-74
2023/11/24 15:07:19;;;;;;;5.20;1.80;;;;;;;3.74;76.92;96834.40;225665;1276;24391;-75
2023/11/24 15:12:26;;;;;;;4.30;1.60;;;;;;;3.70;76.84;96839.98;225932;1272;22563;-74
2023/11/24 15:17:28;;;;;;;5.80;1.40;;;;;;;3.59;76.86;96835.41;225881;1273;22925;-75
2023/11/24 15:22:30;;;;;;;4.30;1.80;;;;;;;3.34;77.39;96829.98;225893;1275;25278;-74
2023/11/24 15:27:33;;;;;;;5.40;2.10;;;;;;;3.13;78.08;96826.84;225929;1274;22563;-76
2023/11/24 15:32:35;;;;;;;4.90;2.00;;;;;;;2.94;78.41;96834.53;225921;1275;22541;-75
2023/11/24 15:37:37;;;;;;;5.00;2.10;;;;;;;2.72;78.95;96839.77;226167;1267;22603;-75
2023/11/24 15:42:40;;;;;;;4.10;2.50;;;;;;;2.51;79.49;96842.48;226401;1274;22598;-75
2023/11/24 15:47:47;;;;;;;3.60;2.10;;;;;;;2.34;79.86;96852.17;226396;1270;22576;-76
2023/11/24 15:53:05;;;;;;;6.50;2.70;;;;;;;2.20;80.49;96847.45;226387;1276;22560;-74
2023/11/24 15:58:12;;;;;;;8.80;3.70;;;;;;;2.16;80.90;96849.95;226357;1274;22913;-75
2023/11/24 16:03:15;;;;;;;10.90;5.50;;;;;;;2.18;81.34;96848.30;226351;1263;22631;-76
2023/11/24 16:08:19;;;;;;;14.50;5.30;;;;;;;2.18;81.44;96843.05;226344;1274;22578;-76
2023/11/24 16:13:24;;;;;;;6.80;3.50;;;;;;;2.18;81.66;96841.29;226423;1273;22559;-75
2023/11/24 16:18:26;;;;;;;10.20;5.10;;;;;;;2.17;81.70;96832.77;226430;1275;22556;-76
2023/11/24 16:23:36;;;;;;;9.70;4.50;;;;;;;2.10;81.96;96823.67;226337;1275;22646;-77
2023/11/24 16:28:40;;;;;;;10.70;5.10;;;;;;;1.97;81.95;96824.04;226342;1275;22644;-76
2023/11/24 16:33:42;;;;;;;12.80;5.20;;;;;;;1.83;82.33;96822.43;226336;1270;22565;-75
2023/11/24 16:38:44;;;;;;;13.30;7.20;;;;;;;1.67;82.41;96823.23;226354;1275;23010;-74
2023/11/24 16:43:46;;;;;;;16.60;6.70;;;;;;;1.52;82.75;96824.34;226410;1274;22998;-75
2023/11/24 16:48:48;;;;;;;12.40;6.40;;;;;;;1.39;83.06;96829.33;226381;1273;22544;-74
2023/11/24 16:53:50;;;;;;;10.40;6.10;;;;;;;1.30;83.25;96832.41;226316;1275;23066;-75
2023/11/24 16:58:53;;;;;;;11.90;6.40;;;;;;;1.28;83.43;96834.28;226359;1272;22578;-76
2023/11/24 17:03:57;;;;;;;12.30;6.90;;;;;;;1.29;83.58;96836.91;226462;1270;22586;-76
2023/11/24 17:09:00;;;;;;;17.40;8.80;;;;;;;1.31;83.69;96831.95;226375;1272;22561;-75
2023/11/24 17:14:02;;;;;;;16.10;7.80;;;;;;;1.31;83.70;96827.98;226433;1272;22542;-75
2023/11/24 17:19:05;;;;;;;16.20;8.20;;;;;;;1.30;83.71;96819.12;226403;1273;22540;-74
2023/11/24 17:24:08;;;;;;;9.80;5.60;;;;;;;1.26;83.58;96812.65;226417;1272;22540;-75
2023/11/24 17:29:13;;;;;;;12.00;6.00;;;;;;;1.19;83.50;96809.98;226417;1274;22576;-76
2023/11/24 17:34:16;;;;;;;12.10;5.90;;;;;;;1.12;83.37;96806.71;226421;1275;22563;-75
2023/11/24 17:39:18;;;;;;;15.50;6.90;;;;;;;1.04;83.37;96802.88;226357;1273;22551;-76
2023/11/24 17:44:20;;;;;;;18.90;8.60;;;;;;;0.92;83.06;96798.70;226365;1273;23070;-74
2023/11/24 17:49:22;;;;;;;14.40;8.00;;;;;;;0.79;83.33;96802.36;226273;1273;22538;-76
2023/11/24 17:54:25;;;;;;;19.10;8.20;;;;;;;0.66;83.28;96813.90;226410;1273;22550;-75
2023/11/24 17:59:27;;;;;;;14.50;7.80;;;;;;;0.58;83.49;96818.45;226380;1270;22541;-74
2023/11/24 18:04:29;;;;;;;13.60;6.70;;;;;;;0.51;83.48;96816.96;226400;1273;22711;-75
2023/11/24 18:09:32;;;;;;;17.70;8.20;;;;;;;0.46;83.41;96822.70;226355;1274;22543;-74
2023/11/24 18:14:34;;;;;;;23.30;11.50;;;;;;;0.46;83.55;96832.54;226402;1273;22550;-74
2023/11/24 18:19:36;;;;;;;16.10;7.40;;;;;;;0.53;83.63;96834.04;226428;1273;22550;-74
2023/11/24 18:24:38;;;;;;;14.80;6.90;;;;;;;0.61;83.64;96838.36;226325;1275;22894;-74
2023/11/24 18:29:43;;;;;;;11.20;4.90;;;;;;;0.69;83.50;96845.27;226415;1273;22631;-75
2023/11/24 18:34:45;;;;;;;11.20;4.40;;;;;;;0.77;83.42;96844.70;226385;1273;24245;-74
2023/11/24 18:39:49;;;;;;;11.40;5.10;;;;;;;0.85;83.24;96844.98;226447;1272;22554;-75
2023/11/24 18:44:54;;;;;;;11.70;5.20;;;;;;;0.92;82.99;96846.36;226299;1273;22554;-76
2023/11/24 18:49:56;;;;;;;16.60;7.70;;;;;;;1.03;82.85;96846.67;226236;1269;22550;-75
2023/11/24 18:55:00;;;;;;;18.90;8.40;;;;;;;1.11;82.92;96842.54;226407;1275;22552;-74
2023/11/24 19:00:03;;;;;;;21.00;9.60;;;;;;;1.17;82.85;96848.54;226318;1270;25288;-75
2023/11/24 19:05:05;;;;;;;22.60;10.80;;;;;;;1.22;82.60;96835.17;226411;1273;24321;-75
2023/11/24 19:10:14;;;;;;;19.30;9.10;;;;;;;1.29;82.51;96835.38;226444;1272;24300;-75
2023/11/24 19:15:16;;;;;;;23.10;9.80;;;;;;;1.35;82.23;96838.30;226428;1272;22550;-75
2023/11/24 19:20:19;;;;;;;27.60;13.10;;;;;;;1.39;82.12;96830.89;226473;1272;22629;-76
2023/11/24 19:25:21;;;;;;;29.40;13.20;;;;;;;1.42;82.07;96816.61;226377;1273;25362;-76
2023/11/24 19:30:23;;;;;;;32.30;16.10;;;;;;;1.46;81.98;96813.30;226403;1275;22527;-74
2023/11/24 19:35:27;;;;;;;34.60;18.00;;;;;;;1.44;82.13;96813.35;226279;1275;22562;-74
2023/11/24 19:40:31;;;;;;;35.90;18.20;;;;;;;1.41;82.33;96815.35;226365;1264;22547;-75
2023/11/24 19:45:34;;;;;;;34.30;18.40;;;;;;;1.40;82.47;96809.38;226394;1274;22589;-75
2023/11/24 19:50:37;;;;;;;37.10;20.50;;;;;;;1.38;82.51;96804.06;226357;1273;25297;-76
2023/11/24 19:55:40;;;;;;;36.60;20.30;;;;;;;1.35;82.59;96798.70;226393;1275;22551;-76
2023/11/24 20:00:43;;;;;;;33.00;18.20;;;;;;;1.36;82.61;96797.19;226230;1275;22555;-75
2023/11/24 20:05:46;;;;;;;25.60;13.90;;;;;;;1.38;82.65;96794.36;226368;1272;22674;-77
2023/11/24 20:10:49;;;;;;;26.60;14.70;;;;;;;1.38;82.47;96800.26;226411;1269;25447;-75
2023/11/24 20:15:51;;;;;;;28.90;14.80;;;;;;;1.39;82.64;96804.34;226299;1274;24405;-74
2023/11/24 20:20:54;;;;;;;30.00;16.00;;;;;;;1.38;82.50;96799.73;226435;1272;22544;-75
2023/11/24 20:25:56;;;;;;;28.50;15.00;;;;;;;1.36;82.49;96803.91;226400;1275;22557;-75
2023/11/24 20:30:58;;;;;;;29.70;15.20;;;;;;;1.35;82.59;96803.97;226466;1272;23850;-75
2023/11/24 20:36:03;;;;;;;27.80;15.30;;;;;;;1.36;82.78;96811.83;226302;1273;22553;-75
2023/11/24 20:41:05;;;;;;;24.80;13.70;;;;;;;1.39;82.81;96805.36;226358;1272;25449;-73
2023/11/24 20:46:08;;;;;;;26.90;15.10;;;;;;;1.39;82.79;96801.34;226447;1272;22540;-74
2023/11/24 20:51:20;;;;;;;25.80;12.80;;;;;;;1.45;83.01;96810.41;226436;1272;22668;-74
2023/11/24 20:56:30;;;;;;;18.90;10.50;;;;;;;1.49;82.88;96811.98;226296;1273;24254;-74
2023/11/24 21:01:34;;;;;;;24.10;11.80;;;;;;;1.48;82.99;96806.66;226319;1270;22543;-75
2023/11/24 21:06:37;;;;;;;21.30;10.70;;;;;;;1.39;83.23;96808.28;226422;1275;22555;-75
2023/11/24 21:11:42;;;;;;;21.10;9.60;;;;;;;1.29;83.31;96815.86;226489;1259;23121;-74
2023/11/24 21:16:44;;;;;;;13.00;7.90;;;;;;;1.19;83.55;96812.46;226404;1272;22554;-74
2023/11/24 21:21:47;;;;;;;14.00;7.00;;;;;;;1.10;83.86;96811.23;226502;1272;25355;-74
2023/11/24 21:26:50;;;;;;;14.80;7.40;;;;;;;1.00;84.14;96801.95;226491;1272;22557;-74
2023/11/24 21:31:52;;;;;;;13.30;7.10;;;;;;;0.90;84.50;96796.39;226430;1275;26830;-77
2023/11/24 21:36:54;;;;;;;12.40;6.00;;;;;;;0.80;84.83;96791.95;226324;1275;22674;-74
2023/11/24 21:41:56;;;;;;;8.70;5.30;;;;;;;0.74;85.08;96791.09;226356;1272;25329;-76
2023/11/24 21:46:58;;;;;;;10.50;5.90;;;;;;;0.73;85.48;96794.02;226410;1269;25360;-75
2023/11/24 21:52:01;;;;;;;13.90;6.90;;;;;;;0.71;85.52;96782.98;226401;1268;22541;-75
2023/11/24 21:57:03;;;;;;;15.70;7.40;;;;;;;0.70;85.68;96780.31;226452;1272;22659;-75
2023/11/24 22:02:05;;;;;;;14.30;7.70;;;;;;;0.71;85.78;96772.23;226433;1273;22550;-75
2023/11/24 22:07:10;;;;;;;10.00;5.80;;;;;;;0.71;85.80;96762.84;226459;1275;22536;-75
2023/11/24 22:12:12;;;;;;;13.00;6.70;;;;;;;0.69;85.93;96756.28;226295;1275;22583;-76
2023/11/24 22:17:14;;;;;;;14.30;8.50;;;;;;;0.67;85.80;96755.52;226472;1272;22563;-75
2023/11/24 22:22:16;;;;;;;12.60;7.70;;;;;;;0.67;85.85;96754.35;226364;1273;22551;-75
2023/11/24 22:27:20;;;;;;;13.20;7.30;;;;;;;0.66;86.02;96748.35;226485;1272;22546;-75
2023/11/24 22:32:27;;;;;;;14.10;6.80;;;;;;;0.65;86.05;96738.42;226466;1272;22527;-75
2023/11/24 22:37:30;;;;;;;17.60;7.90;;;;;;;0.64;85.99;96732.13;226464;1264;22539;-76
2023/11/24 22:42:34;;;;;;;15.50;7.40;;;;;;;0.61;85.99;96730.92;226368;1275;24870;-76
2023/11/24 22:47:37;;;;;;;14.20;6.60;;;;;;;0.56;86.11;96732.86;226560;1272;22566;-75
2023/11/24 22:52:40;;;;;;;11.20;6.20;;;;;;;0.53;85.95;96731.35;226400;1273;22570;-75
2023/11/24 22:57:42;;;;;;;11.80;5.60;;;;;;;0.50;86.00;96734.23;226382;1275;23283;-76
2023/11/24 23:02:44;;;;;;;7.50;4.70;;;;;;;0.51;86.35;96732.44;226480;1273;22551;-74
2023/11/24 23:07:47;;;;;;;10.50;4.60;;;;;;;0.53;86.17;96732.52;226384;1270;22584;-77
2023/11/24 23:12:50;;;;;;;7.80;3.90;;;;;;;0.57;86.27;96733.17;226438;1272;26024;-74
2023/11/24 23:17:52;;;;;;;8.00;3.80;;;;;;;0.62;86.18;96730.48;226354;1269;24516;-74
2023/11/24 23:22:54;;;;;;;9.00;3.80;;;;;;;0.66;85.95;96726.69;226176;1272;170610;-74
2023/11/24 23:27:56;;;;;;;8.90;4.30;;;;;;;0.72;86.12;96729.30;226467;1272;24233;-74
2023/11/24 23:32:58;;;;;;;10.40;4.70;;;;;;;0.77;85.92;96732.36;226536;1272;22539;-74
2023/11/24 23:38:19;;;;;;;8.70;3.80;;;;;;;0.82;85.77;96729.48;226503;1269;22584;-75
2023/11/24 23:43:21;;;;;;;8.20;4.50;;;;;;;0.88;86.10;96721.90;226583;1269;22539;-75